createdAt,value
2018-07-14T00:01:15.264Z,0.00
2018-07-14T00:04:11.727Z,0.00
2018-07-14T00:05:11.402Z,0.00
2018-07-14T00:07:07.192Z,0.00
2018-07-14T00:09:24.591Z,0.00
2018-07-14T00:10:23.200Z,0.00
2018-07-14T00:12:20.935Z,0.00
2018-07-14T00:13:19.073Z,0.00
2018-07-14T00:15:15.189Z,0.00
2018-07-14T00:16:15.157Z,0.00
2018-07-14T00:18:09.589Z,0.00
2018-07-14T00:19:10.127Z,0.00
2018-07-14T00:21:03.993Z,0.00
2018-07-14T00:22:04.592Z,0.00
2018-07-14T00:23:59.464Z,0.00
2018-07-14T00:24:58.685Z,0.00
2018-07-14T00:26:55.651Z,0.00
2018-07-14T00:27:55.150Z,0.00
2018-07-14T00:29:51.244Z,0.00
2018-07-14T00:30:50.629Z,0.00
2018-07-14T00:32:51.601Z,0.00
2018-07-14T00:33:47.448Z,0.00
2018-07-14T00:35:43.909Z,0.00
2018-07-14T00:36:42.112Z,0.00
2018-07-14T00:38:42.104Z,0.00
2018-07-14T00:39:37.995Z,0.00
2018-07-14T00:41:34.456Z,0.00
2018-07-14T00:42:35.459Z,0.00
2018-07-14T00:44:27.906Z,0.00
2018-07-14T00:45:27.401Z,0.00
2018-07-14T00:47:24.362Z,0.00
2018-07-14T00:48:23.872Z,0.00
2018-07-14T00:50:20.434Z,0.00
2018-07-14T00:51:19.304Z,0.00
2018-07-14T00:53:15.796Z,0.00
2018-07-14T00:54:15.769Z,0.00
2018-07-14T00:56:09.738Z,0.00
2018-07-14T00:57:09.711Z,0.00
2018-07-14T00:59:07.170Z,0.00
2018-07-14T01:00:05.936Z,0.00
2018-07-14T01:02:02.122Z,0.00
2018-07-14T01:03:01.611Z,0.00
2018-07-14T01:04:58.083Z,0.00
2018-07-14T01:05:57.567Z,0.00
2018-07-14T01:07:53.523Z,0.00
2018-07-14T01:08:53.514Z,0.00
2018-07-14T01:10:48.485Z,0.00
2018-07-14T01:11:48.001Z,0.00
2018-07-14T01:13:46.481Z,0.00
2018-07-14T01:14:46.100Z,0.00
2018-07-14T01:16:41.564Z,0.00
2018-07-14T01:17:41.085Z,0.00
2018-07-14T01:19:35.019Z,0.00
2018-07-14T01:20:34.992Z,0.00
2018-07-14T01:22:30.964Z,0.00
2018-07-14T01:23:30.955Z,0.00
2018-07-14T01:25:27.917Z,0.00
2018-07-14T01:26:26.925Z,0.00
2018-07-14T01:28:23.381Z,0.00
2018-07-14T01:29:22.890Z,0.00
2018-07-14T01:31:19.851Z,0.00
2018-07-14T01:32:19.356Z,0.00
2018-07-14T01:34:14.808Z,0.00
2018-07-14T01:35:14.782Z,0.00
2018-07-14T01:37:11.233Z,0.00
2018-07-14T01:38:10.737Z,0.00
2018-07-14T01:40:07.699Z,0.00
2018-07-14T01:41:07.703Z,0.00
2018-07-14T01:43:03.183Z,0.00
2018-07-14T01:44:03.673Z,0.00
2018-07-14T01:45:58.662Z,0.00
2018-07-14T01:46:58.683Z,0.00
2018-07-14T01:48:55.103Z,0.00
2018-07-14T01:49:54.603Z,0.00
2018-07-14T01:51:49.058Z,0.00
2018-07-14T01:52:50.485Z,0.00
2018-07-14T01:54:43.521Z,0.00
2018-07-14T01:55:44.016Z,0.00
2018-07-14T01:57:39.454Z,0.00
2018-07-14T01:58:39.468Z,0.00
2018-07-14T02:00:36.938Z,0.00
2018-07-14T02:01:35.426Z,0.00
2018-07-14T02:03:29.856Z,0.00
2018-07-14T02:04:29.846Z,0.00
2018-07-14T02:06:24.814Z,0.00
2018-07-14T02:07:24.290Z,0.00
2018-07-14T02:09:20.763Z,0.00
2018-07-14T02:10:20.240Z,0.00
2018-07-14T02:12:16.697Z,0.00
2018-07-14T02:13:16.194Z,0.00
2018-07-14T02:15:13.166Z,0.00
2018-07-14T02:16:12.149Z,0.00
2018-07-14T02:18:07.129Z,0.00
2018-07-14T02:19:07.113Z,0.00
2018-07-14T02:21:04.049Z,0.00
2018-07-14T02:22:02.559Z,0.00
2018-07-14T02:23:59.014Z,0.00
2018-07-14T02:24:58.491Z,0.00
2018-07-14T02:26:55.471Z,0.00
2018-07-14T02:27:54.450Z,0.00
2018-07-14T02:29:49.911Z,0.00
2018-07-14T02:30:48.947Z,0.00
2018-07-14T02:32:43.416Z,0.00
2018-07-14T02:33:43.375Z,0.00
2018-07-14T02:35:39.861Z,0.00
2018-07-14T02:36:40.832Z,0.00
2018-07-14T02:38:34.275Z,0.00
2018-07-14T02:39:33.762Z,0.00
2018-07-14T02:41:29.752Z,0.00
2018-07-14T02:42:29.715Z,0.00
2018-07-14T02:44:24.176Z,0.00
2018-07-14T02:45:24.156Z,0.00
2018-07-14T02:47:20.097Z,0.00
2018-07-14T02:48:20.099Z,0.00
2018-07-14T02:50:17.073Z,0.00
2018-07-14T02:51:16.060Z,0.00
2018-07-14T02:53:12.049Z,0.00
2018-07-14T02:54:12.525Z,0.00
2018-07-14T02:56:08.469Z,0.00
2018-07-14T02:57:07.993Z,0.00
2018-07-14T02:59:04.894Z,4.00
2018-07-14T03:00:03.930Z,4.00
2018-07-14T03:02:00.861Z,4.00
2018-07-14T03:02:59.850Z,4.00
2018-07-14T03:04:56.824Z,4.00
2018-07-14T03:05:55.875Z,8.00
2018-07-14T03:07:52.322Z,4.00
2018-07-14T03:08:51.806Z,8.00
2018-07-14T03:10:48.775Z,12.00
2018-07-14T03:11:47.771Z,12.00
2018-07-14T03:13:44.247Z,16.00
2018-07-14T03:14:43.712Z,20.00
2018-07-14T03:16:40.670Z,20.00
2018-07-14T03:17:39.644Z,24.00
2018-07-14T03:19:35.714Z,28.00
2018-07-14T03:20:35.583Z,32.00
2018-07-14T03:22:31.529Z,36.00
2018-07-14T03:23:31.538Z,40.00
2018-07-14T03:25:27.524Z,52.00
2018-07-14T03:26:27.484Z,52.00
2018-07-14T03:28:23.407Z,64.00
2018-07-14T03:29:23.424Z,68.00
2018-07-14T03:31:19.436Z,80.00
2018-07-14T03:32:19.391Z,88.00
2018-07-14T03:34:15.365Z,100.00
2018-07-14T03:35:15.859Z,108.00
2018-07-14T03:37:11.290Z,124.00
2018-07-14T03:38:11.302Z,132.00
2018-07-14T03:40:07.779Z,152.00
2018-07-14T03:41:07.261Z,160.00
2018-07-14T03:43:03.717Z,180.00
2018-07-14T03:44:03.207Z,192.00
2018-07-14T03:45:59.188Z,216.00
2018-07-14T03:46:59.156Z,224.00
2018-07-14T03:48:55.110Z,252.00
2018-07-14T03:49:56.113Z,264.00
2018-07-14T03:51:51.126Z,292.00
2018-07-14T03:52:51.098Z,308.00
2018-07-14T03:54:48.032Z,336.00
2018-07-14T03:55:47.553Z,356.00
2018-07-14T03:57:42.992Z,384.00
2018-07-14T03:58:42.988Z,404.00
2018-07-14T04:00:38.968Z,444.00
2018-07-14T04:01:38.938Z,464.00
2018-07-14T04:03:35.384Z,504.00
2018-07-14T04:04:35.394Z,524.00
2018-07-14T04:06:31.412Z,564.00
2018-07-14T04:07:30.836Z,588.00
2018-07-14T04:09:25.300Z,636.00
2018-07-14T04:10:25.295Z,656.00
2018-07-14T04:12:21.760Z,704.00
2018-07-14T04:13:22.248Z,728.00
2018-07-14T04:15:17.226Z,784.00
2018-07-14T04:16:17.209Z,812.00
2018-07-14T04:18:13.663Z,860.00
2018-07-14T04:19:13.164Z,892.00
2018-07-14T04:21:09.614Z,956.00
2018-07-14T04:22:09.096Z,996.00
2018-07-14T04:24:06.076Z,1068.00
2018-07-14T04:25:05.092Z,1104.00
2018-07-14T04:27:00.977Z,1152.00
2018-07-14T04:28:01.544Z,1160.00
2018-07-14T04:29:58.445Z,1192.00
2018-07-14T04:30:56.935Z,1204.00
2018-07-14T04:32:53.904Z,1220.00
2018-07-14T04:33:52.884Z,1236.00
2018-07-14T04:35:49.371Z,1264.00
2018-07-14T04:36:49.844Z,1288.00
2018-07-14T04:38:45.821Z,1328.00
2018-07-14T04:39:44.815Z,1356.00
2018-07-14T04:41:42.917Z,1444.00
2018-07-14T04:42:43.782Z,1496.00
2018-07-14T04:44:38.885Z,1604.00
2018-07-14T04:45:37.362Z,1656.00
2018-07-14T04:47:33.844Z,1752.00
2018-07-14T04:48:33.827Z,1812.00
2018-07-14T04:50:29.301Z,2024.00
2018-07-14T04:51:29.288Z,2176.00
2018-07-14T04:53:24.249Z,2216.00
2018-07-14T04:54:25.244Z,2228.00
2018-07-14T04:56:19.675Z,2276.00
2018-07-14T04:57:19.662Z,2292.00
2018-07-14T04:59:15.678Z,2328.00
2018-07-14T05:00:16.118Z,2352.00
2018-07-14T05:02:11.600Z,2496.00
2018-07-14T05:03:11.570Z,2552.00
2018-07-14T05:05:08.045Z,2556.00
2018-07-14T05:06:07.556Z,2588.00
2018-07-14T05:08:06.022Z,2584.00
2018-07-14T05:09:06.506Z,2604.00
2018-07-14T05:11:03.987Z,2704.00
2018-07-14T05:12:03.122Z,2724.00
2018-07-14T05:13:59.090Z,2708.00
2018-07-14T05:14:59.073Z,2776.00
2018-07-14T05:16:55.052Z,2840.00
2018-07-14T05:17:55.015Z,2892.00
2018-07-14T05:19:50.952Z,2812.00
2018-07-14T05:20:50.981Z,2904.00
2018-07-14T05:22:46.944Z,3064.00
2018-07-14T05:23:46.928Z,3072.00
2018-07-14T05:25:41.911Z,3076.00
2018-07-14T05:26:41.389Z,3088.00
2018-07-14T05:28:37.362Z,3144.00
2018-07-14T05:29:38.839Z,3192.00
2018-07-14T05:31:33.802Z,3252.00
2018-07-14T05:32:33.783Z,3280.00
2018-07-14T05:34:29.251Z,3352.00
2018-07-14T05:35:29.218Z,3360.00
2018-07-14T05:37:25.717Z,3384.00
2018-07-14T05:38:25.683Z,3396.00
2018-07-14T05:40:20.127Z,3496.00
2018-07-14T05:41:19.619Z,3512.00
2018-07-14T05:43:14.095Z,3512.00
2018-07-14T05:44:14.591Z,3516.00
2018-07-14T05:46:09.071Z,3516.00
2018-07-14T05:47:09.033Z,3548.00
2018-07-14T05:49:05.459Z,3588.00
2018-07-14T05:50:04.449Z,3608.00
2018-07-14T05:52:01.485Z,3660.00
2018-07-14T05:53:00.423Z,3676.00
2018-07-14T05:54:57.378Z,3740.00
2018-07-14T05:55:56.366Z,3760.00
2018-07-14T05:57:52.822Z,3788.00
2018-07-14T05:58:52.309Z,3820.00
2018-07-14T06:00:48.244Z,3880.00
2018-07-14T06:01:48.283Z,3936.00
2018-07-14T06:03:44.740Z,4048.00
2018-07-14T06:04:45.232Z,4088.00
2018-07-14T06:06:41.691Z,4084.00
2018-07-14T06:07:40.215Z,4084.00
2018-07-14T06:09:34.596Z,4140.00
2018-07-14T06:10:36.051Z,4144.00
2018-07-14T06:12:31.071Z,4188.00
2018-07-14T06:13:30.553Z,4216.00
2018-07-14T06:15:27.024Z,4260.00
2018-07-14T06:16:26.523Z,4256.00
2018-07-14T06:18:23.492Z,4256.00
2018-07-14T06:19:22.475Z,4228.00
2018-07-14T06:21:18.938Z,4236.00
2018-07-14T06:22:18.424Z,4240.00
2018-07-14T06:24:14.372Z,4196.00
2018-07-14T06:25:14.400Z,4180.00
2018-07-14T06:27:11.341Z,4156.00
2018-07-14T06:29:54.851Z,4128.00
2018-07-14T06:30:52.223Z,4104.00
2018-07-14T06:32:48.150Z,4104.00
2018-07-14T06:33:48.164Z,4092.00
2018-07-14T06:35:46.222Z,4092.00
2018-07-14T06:36:44.139Z,4100.00
2018-07-14T06:38:40.699Z,4108.00
2018-07-14T06:39:40.680Z,4112.00
2018-07-14T06:41:36.643Z,4096.00
2018-07-14T06:42:36.639Z,4080.00
2018-07-14T06:44:32.614Z,4056.00
2018-07-14T06:45:33.597Z,4052.00
2018-07-14T06:47:29.099Z,4048.00
2018-07-14T06:48:29.590Z,4052.00
2018-07-14T06:50:24.526Z,4040.00
2018-07-14T06:51:24.535Z,4036.00
2018-07-14T06:53:21.032Z,4032.00
2018-07-14T06:54:21.544Z,4028.00
2018-07-14T06:56:14.960Z,4024.00
2018-07-14T06:57:14.958Z,4012.00
2018-07-14T06:59:12.923Z,4008.00
2018-07-14T07:00:12.914Z,4008.00
2018-07-14T07:02:09.398Z,4012.00
2018-07-14T07:03:08.892Z,4012.00
2018-07-14T07:05:07.855Z,3996.00
2018-07-14T07:06:07.046Z,3996.00
2018-07-14T07:08:03.038Z,4024.00
2018-07-14T07:09:03.016Z,4048.00
2018-07-14T07:10:59.464Z,4104.00
2018-07-14T07:11:58.991Z,4136.00
2018-07-14T07:13:55.434Z,4176.00
2018-07-14T07:14:55.435Z,4180.00
2018-07-14T07:16:52.904Z,4212.00
2018-07-14T07:17:52.871Z,4204.00
2018-07-14T07:19:49.350Z,4216.00
2018-07-14T07:20:49.846Z,4224.00
2018-07-14T07:22:45.803Z,4240.00
2018-07-14T07:23:44.815Z,4236.00
2018-07-14T07:25:41.289Z,4248.00
2018-07-14T07:26:40.825Z,4244.00
2018-07-14T07:28:36.843Z,4248.00
2018-07-14T07:29:36.793Z,4256.00
2018-07-14T07:31:32.722Z,4280.00
2018-07-14T07:32:33.243Z,4284.00
2018-07-14T07:34:29.206Z,4280.00
2018-07-14T07:35:28.677Z,4276.00
2018-07-14T07:37:24.640Z,4256.00
2018-07-14T07:38:25.150Z,4244.00
2018-07-14T07:40:21.588Z,4240.00
2018-07-14T07:41:20.591Z,4236.00
2018-07-14T07:43:15.599Z,4244.00
2018-07-14T07:44:15.054Z,4252.00
2018-07-14T07:46:12.012Z,4256.00
2018-07-14T07:47:10.976Z,4280.00
2018-07-14T07:49:06.449Z,4304.00
2018-07-14T07:50:05.436Z,4316.00
2018-07-14T07:52:02.410Z,4340.00
2018-07-14T07:53:01.431Z,4360.00
2018-07-14T07:54:59.483Z,4372.00
2018-07-14T07:57:13.218Z,4368.00
2018-07-14T07:58:13.022Z,4364.00
2018-07-14T08:00:06.326Z,4348.00
2018-07-14T08:01:07.204Z,4348.00
2018-07-14T08:03:00.469Z,4372.00
2018-07-14T08:05:54.563Z,4376.00
2018-07-14T08:06:54.924Z,4372.00
2018-07-14T08:08:49.042Z,4324.00
2018-07-14T08:09:48.473Z,4312.00
2018-07-14T08:11:44.452Z,4296.00
2018-07-14T08:12:44.422Z,4292.00
2018-07-14T08:14:39.402Z,4288.00
2018-07-14T08:15:40.394Z,4280.00
2018-07-14T08:17:34.824Z,4284.00
2018-07-14T08:18:34.843Z,4288.00
2018-07-14T08:20:31.323Z,4296.00
2018-07-14T08:21:30.798Z,4288.00
2018-07-14T08:23:25.293Z,4276.00
2018-07-14T08:24:25.267Z,4272.00
2018-07-14T08:26:22.221Z,4244.00
2018-07-14T08:27:21.177Z,4244.00
2018-07-14T08:29:15.643Z,4244.00
2018-07-14T08:30:15.677Z,4260.00
2018-07-14T08:32:10.109Z,4224.00
2018-07-14T08:33:10.108Z,4228.00
2018-07-14T08:35:06.999Z,4224.00
2018-07-14T08:36:06.088Z,4212.00
2018-07-14T08:38:02.063Z,4216.00
2018-07-14T08:39:02.545Z,4216.00
2018-07-14T08:40:56.526Z,4204.00
2018-07-14T08:41:56.530Z,4200.00
2018-07-14T08:43:51.100Z,4196.00
2018-07-14T08:44:50.971Z,4200.00
2018-07-14T08:46:45.953Z,4216.00
2018-07-14T08:47:45.408Z,4228.00
2018-07-14T08:49:40.411Z,4240.00
2018-07-14T08:50:39.923Z,4232.00
2018-07-14T08:52:34.359Z,4220.00
2018-07-14T08:53:34.360Z,4204.00
2018-07-14T08:55:28.830Z,4176.00
2018-07-14T08:56:30.314Z,4172.00
2018-07-14T08:58:23.783Z,4140.00
2018-07-14T08:59:23.779Z,4140.00
2018-07-14T09:01:19.239Z,4100.00
2018-07-14T09:02:19.212Z,4108.00
2018-07-14T09:04:17.338Z,4120.00
2018-07-14T09:05:17.352Z,4144.00
2018-07-14T09:07:15.314Z,4092.00
2018-07-14T09:08:16.816Z,4080.00
2018-07-14T09:10:11.281Z,4044.00
2018-07-14T09:11:11.283Z,4016.00
2018-07-14T09:13:07.792Z,3960.00
2018-07-14T09:14:07.753Z,3944.00
2018-07-14T09:16:03.197Z,3892.00
2018-07-14T09:17:03.194Z,3880.00
2018-07-14T09:18:58.568Z,3884.00
2018-07-14T09:19:58.658Z,3876.00
2018-07-14T09:21:53.937Z,3904.00
2018-07-14T09:22:53.911Z,3908.00
2018-07-14T09:24:52.024Z,3936.00
2018-07-14T09:25:52.021Z,3904.00
2018-07-14T09:27:46.024Z,3844.00
2018-07-14T09:28:45.514Z,3820.00
2018-07-14T09:30:40.975Z,3812.00
2018-07-14T09:31:40.468Z,3828.00
2018-07-14T09:33:36.932Z,3788.00
2018-07-14T09:34:35.944Z,3780.00
2018-07-14T09:36:32.444Z,3760.00
2018-07-14T09:37:31.897Z,3768.00
2018-07-14T09:39:27.862Z,3812.00
2018-07-14T09:40:29.376Z,3840.00
2018-07-14T09:42:23.835Z,3828.00
2018-07-14T09:43:23.844Z,3856.00
2018-07-14T09:45:22.830Z,3880.00
2018-07-14T09:46:22.403Z,3868.00
2018-07-14T09:48:20.860Z,3936.00
2018-07-14T09:49:20.865Z,3936.00
2018-07-14T09:51:16.821Z,3920.00
2018-07-14T09:52:16.845Z,3964.00
2018-07-14T09:54:14.296Z,4004.00
2018-07-14T09:55:12.816Z,4016.00
2018-07-14T09:57:08.781Z,4000.00
2018-07-14T09:58:09.266Z,4028.00
2018-07-14T10:00:09.213Z,4140.00
2018-07-14T10:01:09.231Z,4164.00
2018-07-14T10:03:06.196Z,4212.00
2018-07-14T10:04:05.231Z,4272.00
2018-07-14T10:06:03.342Z,4228.00
2018-07-14T10:07:04.171Z,4180.00
2018-07-14T10:08:59.835Z,4136.00
2018-07-14T10:09:59.316Z,4184.00
2018-07-14T10:11:55.775Z,4080.00
2018-07-14T10:12:55.315Z,4080.00
2018-07-14T10:14:54.298Z,4008.00
2018-07-14T10:15:53.276Z,3988.00
2018-07-14T10:17:49.312Z,3976.00
2018-07-14T10:18:49.265Z,3984.00
2018-07-14T10:20:45.262Z,4028.00
2018-07-14T10:21:45.220Z,4012.00
2018-07-14T10:23:39.707Z,4096.00
2018-07-14T10:24:39.694Z,4092.00
2018-07-14T10:26:34.167Z,4212.00
2018-07-14T10:27:34.143Z,4304.00
2018-07-14T10:29:28.108Z,4184.00
2018-07-14T10:30:27.607Z,4156.00
2018-07-14T10:32:23.591Z,4016.00
2018-07-14T10:33:22.066Z,3956.00
2018-07-14T10:35:18.526Z,3968.00
2018-07-14T10:36:18.043Z,3952.00
2018-07-14T10:38:12.505Z,3880.00
2018-07-14T10:39:13.496Z,3900.00
2018-07-14T10:41:12.474Z,3888.00
2018-07-14T10:42:11.546Z,3908.00
2018-07-14T10:44:06.649Z,3860.00
2018-07-14T10:45:07.126Z,3828.00
2018-07-14T10:47:03.123Z,3824.00
2018-07-14T10:48:02.566Z,3792.00
2018-07-14T10:49:58.523Z,3756.00
2018-07-14T10:50:59.532Z,3772.00
2018-07-14T10:52:53.521Z,3752.00
2018-07-14T10:53:53.044Z,3720.00
2018-07-14T10:55:47.499Z,3696.00
2018-07-14T10:56:47.975Z,3728.00
2018-07-14T10:58:41.966Z,3748.00
2018-07-14T10:59:41.950Z,3796.00
2018-07-14T11:01:36.915Z,3836.00
2018-07-14T11:02:36.397Z,3848.00
2018-07-14T11:04:33.421Z,4000.00
2018-07-14T11:05:32.371Z,4068.00
2018-07-14T11:07:26.823Z,3940.00
2018-07-14T11:08:26.845Z,3948.00
2018-07-14T11:10:22.785Z,3868.00
2018-07-14T11:11:23.797Z,3804.00
2018-07-14T11:13:17.313Z,3800.00
2018-07-14T11:14:17.266Z,3824.00
2018-07-14T11:16:11.689Z,3892.00
2018-07-14T11:17:12.227Z,3876.00
2018-07-14T11:19:06.168Z,3848.00
2018-07-14T11:20:06.665Z,3888.00
2018-07-14T11:22:03.124Z,3844.00
2018-07-14T11:23:02.116Z,3860.00
2018-07-14T11:24:57.510Z,3884.00
2018-07-14T11:25:56.581Z,3880.00
2018-07-14T11:27:51.565Z,3924.00
2018-07-14T11:28:51.037Z,3916.00
2018-07-14T11:30:46.434Z,3484.00
2018-07-14T11:31:45.499Z,3824.00
2018-07-14T11:33:39.966Z,4304.00
2018-07-14T11:34:39.983Z,4408.00
2018-07-14T11:36:34.383Z,4444.00
2018-07-14T11:37:34.979Z,4612.00
2018-07-14T11:39:28.876Z,4624.00
2018-07-14T11:40:28.863Z,4332.00
2018-07-14T11:42:25.332Z,5012.00
2018-07-14T11:43:25.832Z,5164.00
2018-07-14T11:45:22.805Z,4308.00
2018-07-14T11:46:20.914Z,4384.00
2018-07-14T11:48:15.370Z,4292.00
2018-07-14T11:49:15.375Z,4400.00
2018-07-14T11:51:10.838Z,4932.00
2018-07-14T11:52:09.849Z,4848.00
2018-07-14T11:54:08.879Z,4776.00
2018-07-14T11:55:08.040Z,4752.00
2018-07-14T11:57:02.987Z,4672.00
2018-07-14T11:58:03.497Z,4480.00
2018-07-14T12:00:01.465Z,4568.00
2018-07-14T12:01:00.483Z,4504.00
2018-07-14T12:02:56.939Z,4272.00
2018-07-14T12:03:56.459Z,4296.00
2018-07-14T12:05:50.909Z,4972.00
2018-07-14T12:06:50.915Z,5120.00
2018-07-14T12:08:45.371Z,5372.00
2018-07-14T12:09:45.414Z,5376.00
2018-07-14T12:11:43.353Z,4620.00
2018-07-14T12:12:41.351Z,4684.00
2018-07-14T12:14:35.854Z,4872.00
2018-07-14T12:15:35.820Z,4828.00
2018-07-14T12:17:31.770Z,4672.00
2018-07-14T12:18:31.796Z,4776.00
2018-07-14T12:20:26.755Z,5004.00
2018-07-14T12:21:27.249Z,5284.00
2018-07-14T12:23:20.235Z,6012.00
2018-07-14T12:24:19.728Z,6044.00
2018-07-14T12:26:17.186Z,6996.00
2018-07-14T12:27:16.189Z,7804.00
2018-07-14T12:29:12.622Z,6524.00
2018-07-14T12:30:12.630Z,5844.00
2018-07-14T12:32:07.634Z,5444.00
2018-07-14T12:33:07.609Z,5368.00
2018-07-14T12:35:02.103Z,5868.00
2018-07-14T12:36:02.082Z,6152.00
2018-07-14T12:37:57.562Z,6992.00
2018-07-14T12:38:56.566Z,6976.00
2018-07-14T12:40:53.024Z,6172.00
2018-07-14T12:41:53.025Z,5340.00
2018-07-14T12:43:47.913Z,5684.00
2018-07-14T12:44:46.994Z,5776.00
2018-07-14T12:46:44.983Z,4980.00
2018-07-14T12:47:44.948Z,4788.00
2018-07-14T12:49:39.424Z,5580.00
2018-07-14T12:50:39.429Z,5976.00
2018-07-14T12:52:34.415Z,6556.00
2018-07-14T12:53:33.895Z,6884.00
2018-07-14T12:55:29.380Z,6616.00
2018-07-14T12:56:28.388Z,6280.00
2018-07-14T12:58:24.397Z,6004.00
2018-07-14T12:59:24.377Z,6084.00
2018-07-14T13:01:20.370Z,6560.00
2018-07-14T13:02:20.323Z,6492.00
2018-07-14T13:04:18.311Z,6484.00
2018-07-14T13:05:19.227Z,6176.00
2018-07-14T13:07:15.271Z,5096.00
2018-07-14T13:08:14.280Z,4928.00
2018-07-14T13:10:10.266Z,4684.00
2018-07-14T13:11:11.740Z,4536.00
2018-07-14T13:13:04.786Z,4376.00
2018-07-14T13:14:04.782Z,4320.00
2018-07-14T13:16:01.261Z,4360.00
2018-07-14T13:18:17.255Z,4684.00
2018-07-14T13:19:16.807Z,4844.00
2018-07-14T13:21:11.188Z,4904.00
2018-07-14T13:22:11.215Z,4916.00
2018-07-14T13:24:10.177Z,4864.00
2018-07-14T13:25:10.169Z,4680.00
2018-07-14T13:27:05.191Z,4968.00
2018-07-14T13:28:05.167Z,4944.00
2018-07-14T13:30:02.144Z,5004.00
2018-07-14T13:31:01.134Z,4972.00
2018-07-14T13:32:55.577Z,5252.00
2018-07-14T13:33:55.598Z,5484.00
2018-07-14T13:35:52.070Z,5676.00
2018-07-14T13:36:52.059Z,5356.00
2018-07-14T13:38:51.614Z,5200.00
2018-07-14T13:39:46.042Z,5200.00
2018-07-14T13:41:42.046Z,5884.00
2018-07-14T13:42:42.010Z,6020.00
2018-07-14T13:44:36.485Z,6292.00
2018-07-14T13:45:36.477Z,6408.00
2018-07-14T13:47:34.586Z,6220.00
2018-07-14T13:48:34.602Z,5892.00
2018-07-14T13:50:29.561Z,5480.00
2018-07-14T13:51:29.075Z,5236.00
2018-07-14T13:53:25.062Z,5040.00
2018-07-14T13:54:25.030Z,4868.00
2018-07-14T13:56:21.035Z,4664.00
2018-07-14T13:57:20.989Z,4704.00
2018-07-14T13:59:17.946Z,4740.00
2018-07-14T14:00:16.953Z,4724.00
2018-07-14T14:02:13.424Z,4776.00
2018-07-14T14:03:12.436Z,4820.00
2018-07-14T14:05:05.897Z,4740.00
2018-07-14T14:06:05.912Z,4624.00
2018-07-14T14:08:01.884Z,4484.00
2018-07-14T14:09:01.872Z,4528.00
2018-07-14T14:10:57.837Z,4096.00
2018-07-14T14:11:57.851Z,3776.00
2018-07-14T14:13:54.313Z,3588.00
2018-07-14T14:14:54.804Z,3568.00
2018-07-14T14:16:50.275Z,3784.00
2018-07-14T14:17:49.748Z,3752.00
2018-07-14T14:19:46.250Z,3708.00
2018-07-14T14:20:45.743Z,3680.00
2018-07-14T14:22:43.695Z,3752.00
2018-07-14T14:23:41.692Z,3908.00
2018-07-14T14:25:38.660Z,4216.00
2018-07-14T14:26:37.669Z,4180.00
2018-07-14T14:28:33.127Z,4004.00
2018-07-14T14:29:32.136Z,3900.00
2018-07-14T14:31:28.095Z,3844.00
2018-07-14T14:32:28.110Z,3696.00
2018-07-14T14:34:25.065Z,3508.00
2018-07-14T14:35:24.998Z,3556.00
2018-07-14T14:37:21.038Z,3492.00
2018-07-14T14:38:20.045Z,3304.00
2018-07-14T14:40:15.523Z,3216.00
2018-07-14T14:41:15.507Z,3272.00
2018-07-14T14:43:10.819Z,3256.00
2018-07-14T14:44:10.407Z,3252.00
2018-07-14T14:46:08.374Z,3232.00
2018-07-14T14:47:06.455Z,3144.00
2018-07-14T14:49:00.916Z,3092.00
2018-07-14T14:50:00.919Z,3148.00
2018-07-14T14:51:57.809Z,3344.00
2018-07-14T14:52:56.877Z,3344.00
2018-07-14T14:54:52.866Z,3900.00
2018-07-14T14:55:52.847Z,4056.00
2018-07-14T14:57:48.830Z,3752.00
2018-07-14T14:58:48.854Z,3492.00
2018-07-14T15:00:45.310Z,3188.00
2018-07-14T15:01:45.302Z,3144.00
2018-07-14T15:03:38.266Z,3104.00
2018-07-14T15:04:38.318Z,3028.00
2018-07-14T15:06:34.259Z,2996.00
2018-07-14T15:07:34.262Z,2912.00
2018-07-14T15:09:30.202Z,2904.00
2018-07-14T15:10:30.227Z,2920.00
2018-07-14T15:12:24.708Z,2900.00
2018-07-14T15:13:24.708Z,2888.00
2018-07-14T15:15:20.666Z,2776.00
2018-07-14T15:16:20.675Z,2740.00
2018-07-14T15:18:19.633Z,2748.00
2018-07-14T15:19:16.673Z,2772.00
2018-07-14T15:21:12.681Z,2812.00
2018-07-14T15:22:12.655Z,2780.00
2018-07-14T15:24:10.119Z,2952.00
2018-07-14T15:25:08.629Z,3092.00
2018-07-14T15:27:03.108Z,3108.00
2018-07-14T15:28:04.023Z,3160.00
2018-07-14T15:29:58.032Z,2732.00
2018-07-14T15:30:57.543Z,2592.00
2018-07-14T15:32:53.605Z,2508.00
2018-07-14T15:33:54.520Z,2500.00
2018-07-14T15:35:50.022Z,2464.00
2018-07-14T15:36:49.542Z,2456.00
2018-07-14T15:38:43.984Z,2436.00
2018-07-14T15:39:43.974Z,2436.00
2018-07-14T15:41:39.965Z,2392.00
2018-07-14T15:42:39.946Z,2364.00
2018-07-14T15:44:36.422Z,2348.00
2018-07-14T15:45:36.426Z,2336.00
2018-07-14T15:47:31.855Z,2312.00
2018-07-14T15:48:31.877Z,2280.00
2018-07-14T15:50:28.354Z,2228.00
2018-07-14T15:51:28.358Z,2204.00
2018-07-14T15:53:22.296Z,2160.00
2018-07-14T15:54:23.304Z,2160.00
2018-07-14T15:56:18.284Z,2180.00
2018-07-14T15:57:18.257Z,2180.00
2018-07-14T15:59:15.224Z,2188.00
2018-07-14T16:00:15.294Z,2204.00
2018-07-14T16:02:11.210Z,2200.00
2018-07-14T16:03:11.203Z,2192.00
2018-07-14T16:05:06.927Z,2200.00
2018-07-14T16:06:06.663Z,2212.00
2018-07-14T16:08:00.702Z,2240.00
2018-07-14T16:09:01.666Z,2300.00
2018-07-14T16:10:56.656Z,2264.00
2018-07-14T16:11:57.640Z,2224.00
2018-07-14T16:13:53.600Z,2172.00
2018-07-14T16:14:53.100Z,2204.00
2018-07-14T16:16:50.575Z,2196.00
2018-07-14T16:17:48.572Z,2172.00
2018-07-14T16:19:46.021Z,2132.00
2018-07-14T16:20:44.525Z,2116.00
2018-07-14T16:22:41.479Z,2092.00
2018-07-14T16:23:40.501Z,2072.00
2018-07-14T16:25:38.680Z,2064.00
2018-07-14T16:26:38.652Z,2048.00
2018-07-14T16:28:33.173Z,2040.00
2018-07-14T16:29:33.157Z,2036.00
2018-07-14T16:31:29.628Z,2044.00
2018-07-14T16:32:29.112Z,2156.00
2018-07-14T16:34:25.575Z,2404.00
2018-07-14T16:35:25.083Z,2528.00
2018-07-14T16:37:21.066Z,2820.00
2018-07-14T16:38:21.052Z,3000.00
2018-07-14T16:40:22.020Z,3344.00
2018-07-14T16:41:21.525Z,3520.00
2018-07-14T16:43:17.512Z,3948.00
2018-07-14T16:44:17.489Z,4232.00
2018-07-14T16:46:13.470Z,4920.00
2018-07-14T16:47:13.455Z,5604.00
2018-07-14T16:49:07.929Z,17568.00
2018-07-14T16:50:07.923Z,24032.00
2018-07-14T16:52:02.374Z,20928.00
2018-07-14T16:53:02.380Z,16288.00
2018-07-14T16:54:58.418Z,10732.00
2018-07-14T16:55:58.441Z,10580.00
2018-07-14T16:57:52.926Z,10684.00
2018-07-14T16:58:53.411Z,10248.00
2018-07-14T17:00:48.854Z,7068.00
2018-07-14T17:01:48.893Z,5324.00
2018-07-14T17:03:44.856Z,4876.00
2018-07-14T17:04:44.928Z,4056.00
2018-07-14T17:06:42.302Z,3560.00
2018-07-14T17:07:40.784Z,2748.00
2018-07-14T17:09:36.782Z,2156.00
2018-07-14T17:10:37.044Z,1924.00
2018-07-14T17:12:34.757Z,1804.00
2018-07-14T17:13:32.759Z,1796.00
2018-07-14T17:15:29.237Z,1740.00
2018-07-14T17:16:28.737Z,1708.00
2018-07-14T17:18:25.708Z,1712.00
2018-07-14T17:20:41.298Z,1712.00
2018-07-14T17:21:40.703Z,1684.00
2018-07-14T17:23:37.669Z,1648.00
2018-07-14T17:24:36.686Z,1648.00
2018-07-14T17:26:32.660Z,1612.00
2018-07-14T17:27:33.146Z,1604.00
2018-07-14T17:29:28.612Z,1584.00
2018-07-14T17:30:28.598Z,1580.00
2018-07-14T17:32:25.087Z,1572.00
2018-07-14T17:33:24.554Z,1564.00
2018-07-14T17:35:20.546Z,1540.00
2018-07-14T17:36:20.533Z,1540.00
2018-07-14T17:38:17.499Z,1540.00
2018-07-14T17:39:16.501Z,1520.00
2018-07-14T17:41:10.955Z,1484.00
2018-07-14T17:42:10.983Z,1464.00
2018-07-14T17:44:06.949Z,1440.00
2018-07-14T17:45:06.941Z,1432.00
2018-07-14T17:47:01.378Z,1432.00
2018-07-14T17:48:01.391Z,1432.00
2018-07-14T17:49:56.358Z,1404.00
2018-07-14T17:50:56.362Z,1404.00
2018-07-14T17:52:54.354Z,1424.00
2018-07-14T17:53:55.833Z,1400.00
2018-07-14T17:55:50.476Z,1356.00
2018-07-14T17:56:49.962Z,1340.00
2018-07-14T17:58:46.903Z,1388.00
2018-07-14T17:59:45.995Z,1396.00
2018-07-14T18:01:42.449Z,1348.00
2018-07-14T18:02:42.408Z,1336.00
2018-07-14T18:04:36.872Z,1336.00
2018-07-14T18:05:36.397Z,1324.00
2018-07-14T18:07:32.913Z,1592.00
2018-07-14T18:08:32.359Z,1940.00
2018-07-14T18:10:28.836Z,1984.00